createdAt,value
2023-03-06T00:03:05.181Z,34.10
2023-03-06T00:07:10.126Z,28.77
2023-03-06T00:11:15.741Z,28.48
2023-03-06T00:15:19.102Z,27.10
2023-03-06T00:19:22.071Z,26.58
2023-03-06T00:23:28.589Z,25.75
2023-03-06T00:27:32.553Z,31.88
2023-03-06T00:31:36.232Z,28.90
2023-03-06T00:35:40.439Z,29.60
2023-03-06T00:39:45.201Z,30.25
2023-03-06T00:43:49.834Z,32.90
2023-03-06T00:47:52.835Z,25.75
2023-03-06T00:51:55.837Z,32.78
2023-03-06T00:56:04.936Z,35.17
2023-03-06T01:00:09.930Z,25.63
2023-03-06T01:04:15.578Z,30.48
2023-03-06T01:08:18.185Z,27.60
2023-03-06T01:12:23.576Z,28.65
2023-03-06T01:16:26.856Z,25.92
2023-03-06T01:20:30.980Z,26.10
2023-03-06T01:24:34.159Z,30.00
2023-03-06T01:28:39.322Z,24.17
2023-03-06T01:32:42.497Z,27.17
2023-03-06T01:36:45.887Z,23.58
2023-03-06T01:40:49.869Z,28.17
2023-03-06T01:45:06.135Z,28.38
2023-03-06T01:49:14.230Z,20.58
2023-03-06T01:53:17.435Z,26.48
2023-03-06T01:57:27.687Z,27.48
2023-03-06T02:01:33.664Z,29.70
2023-03-06T02:05:37.283Z,25.95
2023-03-06T02:09:40.686Z,24.75
2023-03-06T02:13:45.833Z,24.40
2023-03-06T02:17:52.866Z,24.27
2023-03-06T02:21:58.834Z,24.45
2023-03-06T02:26:05.091Z,21.27
2023-03-06T02:30:11.470Z,25.23
2023-03-06T02:35:02.698Z,22.85
2023-03-06T02:39:06.385Z,22.35
2023-03-06T02:43:14.179Z,20.65
2023-03-06T02:47:17.149Z,32.47
2023-03-06T02:51:20.332Z,21.48
2023-03-06T02:55:23.259Z,24.92
2023-03-06T02:59:28.331Z,19.50
2023-03-06T03:03:31.491Z,24.60
2023-03-06T03:07:34.808Z,24.17
2023-03-06T03:11:38.157Z,20.45
2023-03-06T03:15:42.926Z,21.55
2023-03-06T03:19:46.062Z,25.52
2023-03-06T03:23:49.096Z,21.17
2023-03-06T03:27:54.954Z,21.05
2023-03-06T03:31:59.404Z,25.83
2023-03-06T03:40:08.064Z,19.65
2023-03-06T03:44:11.388Z,14.18
2023-03-06T03:48:15.669Z,22.52
2023-03-06T03:52:18.096Z,23.63
2023-03-06T03:56:21.469Z,22.00
2023-03-06T04:00:24.826Z,20.95
2023-03-06T04:04:29.562Z,19.75
2023-03-06T04:08:32.777Z,16.95
2023-03-06T04:12:37.367Z,15.90
2023-03-06T04:16:40.602Z,19.92
2023-03-06T04:20:45.754Z,19.15
2023-03-06T04:24:50.081Z,24.52
2023-03-06T04:28:53.013Z,23.88
2023-03-06T04:32:55.652Z,25.45
2023-03-06T04:37:00.339Z,18.15
2023-03-06T04:41:03.134Z,20.77
2023-03-06T04:45:07.313Z,22.00
2023-03-06T04:49:10.301Z,20.17
2023-03-06T04:53:17.231Z,20.90
2023-03-06T04:57:21.050Z,23.98
2023-03-06T05:01:24.275Z,23.88
2023-03-06T05:05:27.495Z,21.02
2023-03-06T05:09:31.902Z,22.17
2023-03-06T05:13:38.154Z,29.48
2023-03-06T05:17:41.369Z,29.02
2023-03-06T05:26:10.015Z,21.38
2023-03-06T05:30:15.525Z,22.88
2023-03-06T05:34:18.553Z,21.90
2023-03-06T05:38:23.320Z,23.05
2023-03-06T05:42:28.924Z,20.60
2023-03-06T05:46:32.013Z,21.98
2023-03-06T05:50:39.332Z,19.02
2023-03-06T05:54:43.730Z,17.17
2023-03-06T05:58:48.208Z,24.58
2023-03-06T06:02:51.191Z,23.55
2023-03-06T06:06:55.955Z,25.30
2023-03-06T06:10:59.455Z,20.98
2023-03-06T06:15:03.738Z,21.67
2023-03-06T06:19:06.999Z,28.33
2023-03-06T06:23:12.390Z,33.58
2023-03-06T06:27:15.484Z,23.25
2023-03-06T06:31:20.133Z,31.45
2023-03-06T06:35:23.349Z,28.73
2023-03-06T06:39:26.693Z,20.17
2023-03-06T06:43:29.955Z,23.92
2023-03-06T06:47:34.661Z,27.42
2023-03-06T06:51:37.864Z,24.73
2023-03-06T06:55:44.119Z,21.73
2023-03-06T06:59:47.089Z,22.95
2023-03-06T07:03:51.520Z,22.80
2023-03-06T07:07:56.919Z,22.35
2023-03-06T07:12:01.200Z,21.13
2023-03-06T07:16:09.983Z,21.88
2023-03-06T07:20:17.773Z,25.17
2023-03-06T07:24:23.155Z,20.33
2023-03-06T07:28:26.364Z,21.60
2023-03-06T07:32:29.508Z,25.70
2023-03-06T07:36:36.692Z,25.80
2023-03-06T07:40:40.082Z,19.77
2023-03-06T07:44:45.710Z,26.05
2023-03-06T07:48:51.298Z,24.48
2023-03-06T07:52:55.663Z,20.70
2023-03-06T07:56:58.579Z,16.17
2023-03-06T08:01:05.364Z,20.30
2023-03-06T08:05:11.253Z,19.40
2023-03-06T08:09:16.023Z,17.85
2023-03-06T08:13:19.468Z,16.85
2023-03-06T08:17:22.744Z,24.63
2023-03-06T08:21:27.576Z,20.88
2023-03-06T08:25:37.474Z,21.08
2023-03-06T08:29:43.391Z,13.93
2023-03-06T08:33:46.742Z,14.63
2023-03-06T08:37:49.404Z,16.35
2023-03-06T08:41:53.959Z,16.25
2023-03-06T08:45:58.802Z,17.40
2023-03-06T08:50:04.787Z,21.95
2023-03-06T08:54:08.246Z,24.67
2023-03-06T09:02:17.139Z,21.95
2023-03-06T09:06:20.318Z,22.42
2023-03-06T09:10:25.450Z,19.85
2023-03-06T09:14:29.991Z,21.98
2023-03-06T09:18:35.372Z,26.73
2023-03-06T09:22:39.328Z,18.38
2023-03-06T09:26:46.671Z,22.45
2023-03-06T09:30:54.330Z,18.45
2023-03-06T09:34:57.534Z,16.10
2023-03-06T09:39:00.306Z,14.52
2023-03-06T09:43:08.714Z,18.90
2023-03-06T09:47:39.805Z,16.52
2023-03-06T09:51:59.183Z,16.20
2023-03-06T09:56:04.866Z,14.60
2023-03-06T10:00:14.830Z,15.73
2023-03-06T10:04:33.058Z,16.02
2023-03-06T10:08:48.117Z,13.82
2023-03-06T10:12:59.492Z,16.58
2023-03-06T10:17:03.114Z,14.80
2023-03-06T10:25:28.173Z,14.40
2023-03-06T10:29:56.324Z,13.95
2023-03-06T10:34:17.222Z,11.80
2023-03-06T10:38:27.744Z,14.93
2023-03-06T10:42:31.087Z,16.30
2023-03-06T10:46:36.136Z,11.95
2023-03-06T10:50:39.604Z,14.48
2023-03-06T10:58:49.086Z,14.82
2023-03-06T11:03:17.699Z,18.60
2023-03-06T11:07:22.825Z,12.10
2023-03-06T11:11:37.136Z,17.27
2023-03-06T11:15:56.554Z,18.90
2023-03-06T11:20:17.432Z,14.27
2023-03-06T11:24:22.851Z,16.00
2023-03-06T11:28:30.384Z,14.15
2023-03-06T11:32:39.721Z,16.48
2023-03-06T11:36:48.078Z,15.27
2023-03-06T11:40:57.626Z,16.45
2023-03-06T11:45:18.462Z,20.00
2023-03-06T11:49:26.048Z,22.08
2023-03-06T11:53:34.634Z,20.60
2023-03-06T11:57:49.124Z,22.27
2023-03-06T12:02:06.569Z,28.15
2023-03-06T12:06:17.878Z,18.30
2023-03-06T12:10:27.889Z,20.80
2023-03-06T12:14:43.898Z,19.25
2023-03-06T12:23:15.032Z,17.83
2023-03-06T12:27:36.274Z,22.02
2023-03-06T12:32:02.432Z,22.60
2023-03-06T12:36:29.700Z,18.63
2023-03-06T12:40:46.094Z,17.65
2023-03-06T12:45:23.431Z,18.98
2023-03-06T12:49:32.324Z,21.92
2023-03-06T12:53:41.051Z,13.85
2023-03-06T12:57:44.031Z,17.58
2023-03-06T13:02:26.642Z,20.27
2023-03-06T13:06:50.338Z,19.45
2023-03-06T13:11:20.886Z,22.02
2023-03-06T13:15:43.142Z,20.55
2023-03-06T13:19:46.441Z,21.85
2023-03-06T13:23:53.008Z,20.73
2023-03-06T13:28:05.066Z,21.27
2023-03-06T13:32:17.358Z,22.80
2023-03-06T13:36:27.637Z,23.35
2023-03-06T13:40:36.309Z,28.55
2023-03-06T13:44:46.295Z,29.15
2023-03-06T13:49:08.991Z,28.70
2023-03-06T13:53:55.698Z,32.03
2023-03-06T13:58:19.000Z,29.33
2023-03-06T14:02:42.364Z,29.75
2023-03-06T14:06:55.146Z,32.58
2023-03-06T14:11:04.047Z,31.33
2023-03-06T14:15:17.941Z,27.58
2023-03-06T14:19:23.060Z,27.38
2023-03-06T14:23:38.351Z,26.48
2023-03-06T14:27:45.443Z,27.23
2023-03-06T14:31:54.194Z,25.95
2023-03-06T14:36:04.599Z,27.80
2023-03-06T14:40:14.174Z,26.60
2023-03-06T14:44:19.882Z,16.90
2023-03-06T14:48:23.348Z,20.48
2023-03-06T14:52:27.787Z,21.08
2023-03-06T14:56:36.567Z,23.08
2023-03-06T15:00:44.078Z,20.08
2023-03-06T15:04:51.284Z,25.45
2023-03-06T15:09:05.905Z,24.30
2023-03-06T15:13:11.715Z,15.00
2023-03-06T15:17:39.911Z,21.38
2023-03-06T15:21:42.400Z,20.73
2023-03-06T15:26:05.397Z,19.13
2023-03-06T15:30:27.797Z,19.95
2023-03-06T15:34:32.295Z,22.67
2023-03-06T15:38:45.472Z,18.70
2023-03-06T15:42:54.856Z,23.83
2023-03-06T15:47:08.470Z,22.10
2023-03-06T15:51:12.051Z,20.13
2023-03-06T15:55:17.401Z,28.48
2023-03-06T15:59:27.128Z,23.65
2023-03-06T16:03:34.475Z,24.38
2023-03-06T16:07:38.424Z,25.13
2023-03-06T16:11:47.966Z,33.03
2023-03-06T16:16:05.266Z,24.98
2023-03-06T16:20:14.797Z,25.85
2023-03-06T16:24:23.386Z,23.52
2023-03-06T16:28:31.707Z,28.77
2023-03-06T16:32:42.013Z,33.20
2023-03-06T16:36:51.446Z,27.02
2023-03-06T16:40:54.953Z,22.30
2023-03-06T16:45:02.296Z,31.38
2023-03-06T16:49:08.806Z,29.52
2023-03-06T16:53:21.222Z,25.98
2023-03-06T16:57:32.831Z,28.25
2023-03-06T17:01:39.675Z,27.85
2023-03-06T17:05:51.404Z,29.88
2023-03-06T17:10:01.745Z,29.83
2023-03-06T17:14:08.790Z,32.85
2023-03-06T17:18:19.386Z,33.78
2023-03-06T17:22:29.017Z,34.50
2023-03-06T17:26:32.736Z,33.92
2023-03-06T17:30:41.026Z,41.00
2023-03-06T17:34:49.950Z,31.77
2023-03-06T17:38:58.924Z,33.30
2023-03-06T17:43:01.860Z,29.65
2023-03-06T17:47:05.524Z,31.42
2023-03-06T17:51:11.789Z,34.13
2023-03-06T17:55:16.091Z,33.20
2023-03-06T17:59:19.110Z,33.33
2023-03-06T18:03:22.747Z,27.67
2023-03-06T18:07:26.820Z,29.23
2023-03-06T18:11:31.496Z,24.98
2023-03-06T18:15:34.605Z,23.65
2023-03-06T18:19:38.689Z,25.15
2023-03-06T18:23:42.801Z,27.10
2023-03-06T18:27:49.665Z,21.10
2023-03-06T18:31:53.544Z,28.83
2023-03-06T18:35:56.968Z,26.88
2023-03-06T18:40:00.088Z,30.33
2023-03-06T18:44:07.091Z,32.35
2023-03-06T18:48:10.269Z,29.60
2023-03-06T18:52:15.139Z,29.65
2023-03-06T18:56:20.078Z,24.52
2023-03-06T19:00:29.197Z,25.52
2023-03-06T19:04:32.607Z,32.17
2023-03-06T19:12:38.912Z,28.15
2023-03-06T19:16:43.282Z,24.73
2023-03-06T19:20:46.632Z,31.55
2023-03-06T19:24:50.466Z,24.30
2023-03-06T19:33:00.003Z,25.58
2023-03-06T19:37:04.960Z,22.85
2023-03-06T19:41:13.584Z,26.98
2023-03-06T19:45:18.192Z,20.73
2023-03-06T19:49:22.704Z,22.38
2023-03-06T19:53:28.503Z,21.92
2023-03-06T19:57:31.688Z,18.00
2023-03-06T20:01:35.367Z,13.90
2023-03-06T20:09:52.644Z,12.73
2023-03-06T20:13:57.681Z,17.48
2023-03-06T20:18:01.064Z,15.27
2023-03-06T20:22:05.670Z,13.10
2023-03-06T20:26:16.268Z,13.05
2023-03-06T20:30:19.939Z,15.15
2023-03-06T20:34:22.965Z,15.52
2023-03-06T20:38:27.829Z,13.85
2023-03-06T20:42:30.477Z,16.30
2023-03-06T20:46:33.873Z,11.77
2023-03-06T20:50:39.774Z,10.80
2023-03-06T20:54:46.008Z,11.50
2023-03-06T20:58:51.676Z,22.17
2023-03-06T21:02:54.896Z,15.02
2023-03-06T21:06:58.030Z,13.23
2023-03-06T21:11:02.638Z,11.60
2023-03-06T21:15:06.627Z,13.55
2023-03-06T21:19:09.650Z,13.80
2023-03-06T21:23:12.826Z,16.10
2023-03-06T21:27:17.722Z,15.10
2023-03-06T21:31:23.067Z,13.98
2023-03-06T21:35:27.407Z,14.45
2023-03-06T21:39:32.621Z,16.60
2023-03-06T21:43:40.115Z,13.68
2023-03-06T21:47:42.906Z,16.35
2023-03-06T21:51:46.438Z,10.10
2023-03-06T21:55:49.942Z,15.48
2023-03-06T21:59:54.566Z,15.70
2023-03-06T22:03:58.759Z,12.50
2023-03-06T22:08:02.169Z,16.45
2023-03-06T22:12:08.491Z,17.58
2023-03-06T22:16:19.565Z,13.30
2023-03-06T22:20:24.703Z,18.52
2023-03-06T22:24:29.190Z,18.52
2023-03-06T22:28:32.183Z,18.05
2023-03-06T22:32:36.857Z,20.50
2023-03-06T22:36:40.118Z,26.35
2023-03-06T22:40:45.284Z,18.67
2023-03-06T22:44:48.641Z,30.42
2023-03-06T22:48:56.741Z,20.02
2023-03-06T22:52:59.737Z,20.15
2023-03-06T22:57:02.254Z,27.60
2023-03-06T23:01:10.078Z,28.02
2023-03-06T23:05:14.707Z,26.40
2023-03-06T23:09:20.841Z,28.23
2023-03-06T23:13:23.869Z,28.80
2023-03-06T23:17:26.995Z,19.02
2023-03-06T23:21:31.902Z,24.05
2023-03-06T23:25:35.056Z,25.42
2023-03-06T23:29:38.066Z,26.45
2023-03-06T23:33:42.019Z,34.50
2023-03-06T23:37:49.827Z,29.40
2023-03-06T23:41:55.687Z,32.20
2023-03-06T23:45:59.353Z,20.75
2023-03-06T23:50:02.710Z,25.77
2023-03-06T23:54:07.502Z,32.47
2023-03-06T23:58:13.070Z,28.85
